Time,TemperatureF,DewpointF,PressureIn,WindDirection,WindDirectionDegrees,WindSpeedMPH,WindSpeedGustMPH,Humidity,HourlyPrecipIn,Conditions,Clouds,dailyrainin,SolarRadiationWatts/m^2,SoftwareType,DateUTC
2013-02-11 00:11:00,9.0,5.0,-100.00,SSW,208,0.0,4.0,85,0.00,,,0.00,0.000000,,2013-02-11 07:11:00,
2013-02-11 00:21:00,9.0,5.0,-100.00,SSW,208,0.0,4.0,85,0.00,,,0.00,0.000000,,2013-02-11 07:21:00,
2013-02-11 00:32:00,9.0,5.0,-100.00,SSW,208,0.0,4.0,85,0.00,,,0.00,0.000000,,2013-02-11 07:32:00,
2013-02-11 02:12:00,8.0,4.0,-100.00,South,187,0.0,0.0,85,-99.99,,,0.00,0.000000,,2013-02-11 09:12:00,
2013-02-11 02:41:00,8.0,4.0,-100.00,South,187,0.0,0.0,85,-99.99,,,0.00,0.000000,,2013-02-11 09:41:00,
2013-02-11 02:51:00,8.0,4.0,-100.00,South,187,0.0,0.0,85,-99.99,,,0.00,0.000000,,2013-02-11 09:51:00,
2013-02-11 03:21:00,8.0,4.0,-100.00,South,180,0.0,3.0,85,0.00,,,0.00,0.000000,,2013-02-11 10:21:00,
2013-02-11 03:41:00,8.0,4.0,-100.00,South,180,0.0,3.0,85,0.00,,,0.00,0.000000,,2013-02-11 10:41:00,
2013-02-11 03:51:00,8.0,4.0,-100.00,South,180,0.0,3.0,85,0.00,,,0.00,0.000000,,2013-02-11 10:51:00,
2013-02-11 03:52:00,10.0,7.0,-100.00,SSW,197,0.0,0.0,86,0.00,,,0.00,0.000000,,2013-02-11 10:52:00,
2013-02-11 04:42:00,10.0,7.0,-100.00,SSW,197,0.0,0.0,86,0.00,,,0.00,0.000000,,2013-02-11 11:42:00,
2013-02-11 04:52:00,11.0,8.0,-100.00,SSW,200,0.0,4.0,87,0.00,,,0.00,0.000000,,2013-02-11 11:52:00,
2013-02-11 05:12:00,11.0,8.0,-100.00,SSW,200,0.0,4.0,87,0.00,,,0.00,0.000000,,2013-02-11 12:12:00,
2013-02-11 06:41:00,12.0,9.0,-100.00,South,188,0.0,0.0,87,0.00,,,-99.99,0.000000,,2013-02-11 13:41:00,
2013-02-11 06:51:00,12.0,9.0,-100.00,South,188,0.0,0.0,87,0.00,,,-99.99,0.000000,,2013-02-11 13:51:00,
2013-02-11 06:52:00,12.0,8.0,-100.00,South,191,0.0,0.0,82,0.00,,,-99.99,0.000000,,2013-02-11 13:52:00,
2013-02-11 07:11:00,12.0,8.0,-100.00,South,191,0.0,0.0,82,0.00,,,-99.99,0.000000,,2013-02-11 14:11:00,
2013-02-11 07:21:00,12.0,8.0,-100.00,South,191,0.0,0.0,82,0.00,,,-99.99,0.000000,,2013-02-11 14:21:00,
2013-02-11 07:42:00,12.0,8.0,-100.00,South,191,0.0,0.0,82,0.00,,,-99.99,0.000000,,2013-02-11 14:42:00,
2013-02-11 08:11:00,13.0,9.0,-100.00,SSW,205,0.0,0.0,83,0.00,,,0.00,10.000000,,2013-02-11 15:11:00,
2013-02-11 08:42:00,13.0,9.0,-100.00,SSW,205,0.0,0.0,83,0.00,,,0.00,10.000000,,2013-02-11 15:42:00,
2013-02-11 08:51:00,13.0,9.0,-100.00,SSW,205,0.0,0.0,83,0.00,,,0.00,10.000000,,2013-02-11 15:51:00,
2013-02-11 09:11:00,15.0,10.0,-100.00,SW,218,0.0,0.0,81,0.00,,,0.00,137.000000,,2013-02-11 16:11:00,
2013-02-11 09:22:00,15.0,10.0,-100.00,SW,218,0.0,0.0,81,0.00,,,0.00,137.000000,,2013-02-11 16:22:00,
2013-02-11 09:32:00,15.0,10.0,-100.00,SW,218,0.0,0.0,81,0.00,,,0.00,137.000000,,2013-02-11 16:32:00,
2013-02-11 09:42:00,15.0,10.0,-100.00,SW,218,0.0,0.0,81,0.00,,,0.00,137.000000,,2013-02-11 16:42:00,
2013-02-11 09:51:00,15.0,10.0,-100.00,SW,218,0.0,0.0,81,0.00,,,0.00,137.000000,,2013-02-11 16:51:00,
2013-02-11 09:52:00,16.0,11.0,-100.00,WSW,239,0.0,0.0,82,0.00,,,0.00,265.000000,,2013-02-11 16:52:00,
2013-02-11 10:11:00,16.0,11.0,-100.00,WSW,239,0.0,0.0,82,0.00,,,0.00,265.000000,,2013-02-11 17:11:00,
2013-02-11 10:21:00,16.0,11.0,-100.00,WSW,239,0.0,0.0,82,0.00,,,0.00,265.000000,,2013-02-11 17:21:00,
2013-02-11 10:32:00,16.0,11.0,-100.00,WSW,239,0.0,0.0,82,0.00,,,0.00,265.000000,,2013-02-11 17:32:00,
2013-02-11 10:41:00,16.0,11.0,-100.00,WSW,239,0.0,0.0,82,0.00,,,0.00,265.000000,,2013-02-11 17:41:00,
2013-02-11 10:52:00,19.0,15.0,-100.00,WSW,258,0.0,4.0,85,0.00,,,0.00,415.000000,,2013-02-11 17:52:00,
2013-02-11 11:21:00,19.0,15.0,-100.00,WSW,258,0.0,4.0,85,0.00,,,0.00,415.000000,,2013-02-11 18:21:00,
2013-02-11 11:32:00,19.0,15.0,-100.00,WSW,258,0.0,4.0,85,0.00,,,0.00,415.000000,,2013-02-11 18:32:00,
2013-02-11 11:42:00,19.0,15.0,-100.00,WSW,258,0.0,4.0,85,0.00,,,0.00,415.000000,,2013-02-11 18:42:00,
2013-02-11 12:11:00,20.0,16.0,-100.00,West,262,0.0,4.0,86,0.00,,,0.00,526.000000,,2013-02-11 19:11:00,
2013-02-11 12:21:00,20.0,16.0,-100.00,West,262,0.0,4.0,86,0.00,,,0.00,526.000000,,2013-02-11 19:21:00,
2013-02-11 12:31:00,20.0,16.0,-100.00,West,262,0.0,4.0,86,0.00,,,0.00,526.000000,,2013-02-11 19:31:00,
2013-02-11 12:41:00,20.0,16.0,-100.00,West,262,0.0,4.0,86,0.00,,,0.00,526.000000,,2013-02-11 19:41:00,
2013-02-11 12:51:00,20.0,16.0,-100.00,West,262,0.0,4.0,86,0.00,,,0.00,526.000000,,2013-02-11 19:51:00,
2013-02-11 12:52:00,24.0,21.0,-100.00,WNW,288,3.0,5.0,88,0.00,,,0.00,562.000000,,2013-02-11 19:52:00,
2013-02-11 13:21:00,24.0,21.0,-100.00,WNW,288,3.0,5.0,88,0.00,,,0.00,562.000000,,2013-02-11 20:21:00,
2013-02-11 13:31:00,24.0,21.0,-100.00,WNW,288,3.0,5.0,88,0.00,,,0.00,562.000000,,2013-02-11 20:31:00,
2013-02-11 13:41:00,24.0,21.0,-100.00,WNW,288,3.0,5.0,88,0.00,,,0.00,562.000000,,2013-02-11 20:41:00,
2013-02-11 14:11:00,25.0,20.0,-100.00,West,271,5.0,7.0,82,0.00,,,0.00,548.000000,,2013-02-11 21:11:00,
2013-02-11 14:21:00,25.0,20.0,-100.00,West,271,5.0,7.0,82,0.00,,,0.00,548.000000,,2013-02-11 21:21:00,
2013-02-11 14:31:00,25.0,20.0,-100.00,West,271,5.0,7.0,82,0.00,,,0.00,548.000000,,2013-02-11 21:31:00,
2013-02-11 14:41:00,25.0,20.0,-100.00,West,271,5.0,7.0,82,0.00,,,0.00,548.000000,,2013-02-11 21:41:00,
2013-02-11 14:51:00,25.0,20.0,-100.00,West,271,5.0,7.0,82,0.00,,,0.00,548.000000,,2013-02-11 21:51:00,
2013-02-11 15:11:00,25.0,19.0,-100.00,WNW,288,6.0,10.0,76,0.00,,,0.00,544.000000,,2013-02-11 22:11:00,
2013-02-11 15:21:00,25.0,19.0,-100.00,WNW,288,6.0,10.0,76,0.00,,,0.00,544.000000,,2013-02-11 22:21:00,
2013-02-11 15:31:00,25.0,19.0,-100.00,WNW,288,6.0,10.0,76,0.00,,,0.00,544.000000,,2013-02-11 22:31:00,
2013-02-11 15:41:00,25.0,19.0,-100.00,WNW,288,6.0,10.0,76,0.00,,,0.00,544.000000,,2013-02-11 22:41:00,
2013-02-11 15:51:00,25.0,19.0,-100.00,WNW,288,6.0,10.0,76,0.00,,,0.00,544.000000,,2013-02-11 22:51:00,
2013-02-11 15:52:00,28.0,18.0,-100.00,West,261,3.0,9.0,67,0.00,,,0.00,387.000000,,2013-02-11 22:52:00,
2013-02-11 16:21:00,28.0,18.0,-100.00,West,261,3.0,9.0,67,0.00,,,0.00,387.000000,,2013-02-11 23:21:00,
2013-02-11 16:31:00,28.0,18.0,-100.00,West,261,3.0,9.0,67,0.00,,,0.00,387.000000,,2013-02-11 23:31:00,
2013-02-11 16:41:00,28.0,18.0,-100.00,West,261,3.0,9.0,67,0.00,,,0.00,387.000000,,2013-02-11 23:41:00,
2013-02-11 17:11:00,26.0,15.0,-100.00,West,264,6.0,9.0,62,0.00,,,0.00,211.000000,,2013-02-12 00:11:00,
2013-02-11 17:21:00,26.0,15.0,-100.00,West,264,6.0,9.0,62,0.00,,,0.00,211.000000,,2013-02-12 00:21:00,
2013-02-11 17:32:00,26.0,15.0,-100.00,West,264,6.0,9.0,62,0.00,,,0.00,211.000000,,2013-02-12 00:32:00,
2013-02-11 17:42:00,26.0,15.0,-100.00,West,264,6.0,9.0,62,0.00,,,0.00,211.000000,,2013-02-12 00:42:00,
2013-02-11 17:51:00,26.0,15.0,-100.00,West,264,6.0,9.0,62,0.00,,,0.00,211.000000,,2013-02-12 00:51:00,
2013-02-11 18:21:00,24.0,15.0,-100.00,NW,307,9.0,13.0,69,0.00,,,0.00,32.000000,,2013-02-12 01:21:00,
2013-02-11 18:31:00,24.0,15.0,-100.00,NW,307,9.0,13.0,69,0.00,,,0.00,32.000000,,2013-02-12 01:31:00,
2013-02-11 18:41:00,24.0,15.0,-100.00,NW,307,9.0,13.0,69,0.00,,,0.00,32.000000,,2013-02-12 01:41:00,
2013-02-11 18:51:00,24.0,15.0,-100.00,NW,307,9.0,13.0,69,0.00,,,0.00,32.000000,,2013-02-12 01:51:00,
2013-02-11 19:21:00,24.0,17.0,-100.00,NW,322,13.0,17.0,75,0.00,,,0.00,0.000000,,2013-02-12 02:21:00,
2013-02-11 19:31:00,24.0,17.0,-100.00,NW,322,13.0,17.0,75,0.00,,,0.00,0.000000,,2013-02-12 02:31:00,
2013-02-11 20:21:00,25.0,16.0,-100.00,NW,319,15.0,19.0,68,0.00,,,0.00,0.000000,,2013-02-12 03:21:00,
2013-02-11 20:31:00,25.0,16.0,-100.00,NW,319,15.0,19.0,68,0.00,,,0.00,0.000000,,2013-02-12 03:31:00,
2013-02-11 21:11:00,25.0,13.0,-100.00,WNW,284,12.0,22.0,60,-99.99,,,0.00,0.000000,,2013-02-12 04:11:00,
2013-02-11 21:21:00,25.0,13.0,-100.00,WNW,284,12.0,22.0,60,-99.99,,,0.00,0.000000,,2013-02-12 04:21:00,
2013-02-11 21:31:00,25.0,13.0,-100.00,WNW,284,12.0,22.0,60,-99.99,,,0.00,0.000000,,2013-02-12 04:31:00,
2013-02-11 21:41:00,25.0,13.0,-100.00,WNW,284,12.0,22.0,60,-99.99,,,0.00,0.000000,,2013-02-12 04:41:00,
2013-02-11 21:51:00,25.0,13.0,-100.00,WNW,284,12.0,22.0,60,-99.99,,,0.00,0.000000,,2013-02-12 04:51:00,
2013-02-11 21:52:00,24.0,13.0,-100.00,West,268,10.0,17.0,63,-99.99,,,0.00,0.000000,,2013-02-12 04:52:00,
2013-02-11 22:11:00,24.0,13.0,-100.00,West,268,10.0,17.0,63,-99.99,,,0.00,0.000000,,2013-02-12 05:11:00,
2013-02-11 22:21:00,24.0,13.0,-100.00,West,268,10.0,17.0,63,-99.99,,,0.00,0.000000,,2013-02-12 05:21:00,
2013-02-11 22:31:00,24.0,13.0,-100.00,West,268,10.0,17.0,63,-99.99,,,0.00,0.000000,,2013-02-12 05:31:00,
2013-02-11 22:41:00,24.0,13.0,-100.00,West,268,10.0,17.0,63,-99.99,,,0.00,0.000000,,2013-02-12 05:41:00,
2013-02-11 23:12:00,23.0,15.0,-100.00,WSW,243,13.0,19.0,70,-99.99,,,0.00,0.000000,,2013-02-12 06:12:00,
2013-02-11 23:21:00,23.0,15.0,-100.00,WSW,243,13.0,19.0,70,-99.99,,,0.00,0.000000,,2013-02-12 06:21:00,
2013-02-11 23:31:00,23.0,15.0,-100.00,WSW,243,13.0,19.0,70,-99.99,,,0.00,0.000000,,2013-02-12 06:31:00,
2013-02-11 23:42:00,23.0,15.0,-100.00,WSW,243,13.0,19.0,70,-99.99,,,0.00,0.000000,,2013-02-12 06:42:00,
2013-02-11 23:51:00,23.0,15.0,-100.00,WSW,243,13.0,19.0,70,-99.99,,,0.00,0.000000,,2013-02-12 06:51:00,